Time;durP1;ratioP1;P1;durP2;ratioP2;P2;SDS_P1;SDS_P2;PMS_P1;PMS_P2;Temp;Humidity;BMP_temperature;BMP_pressure;BME280_temperature;BME280_humidity;BME280_pressure;Samples;Min_cycle;Max_cycle;Signal;HPM_P1;HPM_P2
2023/04/04 00:00:41;;;;;;;6.93;2.42;;;6.20;97.80;;;;;;4985858;28;20107;-89
2023/04/04 00:03:06;;;;;;;7.40;2.50;;;6.20;97.80;;;;;;5002237;28;20029;-89
2023/04/04 00:05:34;;;;;;;7.50;2.38;;;6.20;98.00;;;;;;4978794;28;20039;-89
2023/04/04 00:07:59;;;;;;;6.53;2.25;;;6.10;98.30;;;;;;4980178;28;20141;-89
2023/04/04 00:10:26;;;;;;;6.55;2.60;;;6.10;98.20;;;;;;5004440;28;20057;-89
2023/04/04 00:12:51;;;;;;;7.68;3.13;;;6.10;98.20;;;;;;4990984;28;20034;-89
2023/04/04 00:15:17;;;;;;;6.88;2.53;;;6.10;98.30;;;;;;4998335;28;20458;-89
2023/04/04 00:17:43;;;;;;;5.68;2.42;;;6.10;98.50;;;;;;4983081;28;20029;-90
2023/04/04 00:20:09;;;;;;;5.50;2.47;;;6.10;98.40;;;;;;5001425;28;20025;-89
2023/04/04 00:22:35;;;;;;;5.85;2.78;;;6.00;98.40;;;;;;4984368;28;20478;-88
2023/04/04 00:25:00;;;;;;;4.75;2.78;;;6.00;98.80;;;;;;4984886;28;20026;-88
2023/04/04 00:27:26;;;;;;;8.32;3.22;;;6.00;98.90;;;;;;5002484;28;20440;-95
2023/04/04 00:29:52;;;;;;;6.53;2.67;;;5.90;98.90;;;;;;5002991;28;20026;-95
2023/04/04 00:32:21;;;;;;;4.72;2.20;;;5.90;99.40;;;;;;5002426;28;20025;-95
2023/04/04 00:34:52;;;;;;;6.30;2.50;;;5.90;99.10;;;;;;5002159;28;20036;-95
2023/04/04 00:37:17;;;;;;;;;;;5.90;99.50;;;;;;5018747;28;20022;-95
2023/04/04 00:39:43;;;;;;;7.93;2.75;;;5.90;99.60;;;;;;5017814;28;19962;-94
2023/04/04 00:42:09;;;;;;;5.43;2.53;;;5.80;99.90;;;;;;5018499;28;20033;-93
2023/04/04 00:44:35;;;;;;;7.43;2.80;;;5.80;99.90;;;;;;4985076;28;20034;-93
2023/04/04 00:47:02;;;;;;;9.05;2.90;;;5.80;99.90;;;;;;4978704;28;20077;-93
2023/04/04 00:49:27;;;;;;;5.97;2.40;;;5.80;99.90;;;;;;4978152;28;20498;-92
2023/04/04 00:51:54;;;;;;;7.60;2.75;;;5.70;99.90;;;;;;4999659;28;20027;-92
2023/04/04 00:54:20;;;;;;;7.75;3.08;;;5.70;99.90;;;;;;4985581;28;20079;-93
2023/04/04 00:56:46;;;;;;;4.85;2.60;;;5.70;99.90;;;;;;5017533;28;20022;-92
2023/04/04 00:59:19;;;;;;;5.70;2.65;;;5.70;99.90;;;;;;4992026;28;20029;-96
2023/04/04 01:01:58;;;;;;;4.97;2.20;;;5.60;99.90;;;;;;5037709;28;20021;-96
2023/04/04 01:04:28;;;;;;;6.90;2.80;;;5.60;99.90;;;;;;5040246;28;20045;-95
2023/04/04 01:07:01;;;;;;;6.72;2.90;;;5.60;99.90;;;;;;5023795;28;20025;-96
2023/04/04 01:09:49;;;;;;;7.85;2.85;;;5.50;99.90;;;;;;5017452;28;20028;-93
2023/04/04 01:12:15;;;;;;;7.80;3.05;;;5.50;99.90;;;;;;5029980;28;20053;-95
2023/04/04 01:14:47;;;;;;;9.23;3.33;;;5.50;99.90;;;;;;5037721;28;20017;-96
2023/04/04 01:17:13;;;;;;;6.38;2.70;;;5.50;99.90;;;;;;4987151;28;20040;-89
2023/04/04 01:20:02;;;;;;;6.22;2.70;;;5.50;99.90;;;;;;5000871;28;20052;-88
2023/04/04 01:22:30;;;;;;;6.07;2.58;;;5.40;99.90;;;;;;5009084;28;20038;-89
2023/04/04 01:24:58;;;;;;;6.05;2.90;;;5.40;99.90;;;;;;4996908;28;20490;-89
2023/04/04 01:27:24;;;;;;;7.82;3.15;;;5.30;99.90;;;;;;4998151;28;20030;-88
2023/04/04 01:29:50;;;;;;;9.48;3.10;;;5.30;99.90;;;;;;4983900;28;20052;-87
2023/04/04 01:32:20;;;;;;;5.65;3.05;;;5.30;99.90;;;;;;4984649;28;20018;-93
2023/04/04 01:35:07;;;;;;;7.22;3.10;;;5.30;99.90;;;;;;5017419;28;20084;-93
2023/04/04 01:37:32;;;;;;;5.72;2.75;;;5.30;99.90;;;;;;5017260;28;20018;-94
2023/04/04 01:40:27;;;;;;;6.45;3.13;;;5.20;99.90;;;;;;5016814;28;20379;-93
2023/04/04 01:42:53;;;;;;;6.18;2.75;;;5.20;99.90;;;;;;5015297;28;20064;-93
2023/04/04 01:45:21;;;;;;;7.68;2.88;;;5.10;99.90;;;;;;4986626;28;20025;-93
2023/04/04 01:47:47;;;;;;;5.38;2.67;;;5.10;99.90;;;;;;4997518;28;20121;-94
2023/04/04 01:50:19;;;;;;;8.57;2.97;;;5.20;99.90;;;;;;4988649;28;20079;-96
2023/04/04 01:52:47;;;;;;;9.00;3.03;;;5.10;99.90;;;;;;5031619;28;20111;-96
2023/04/04 01:55:13;;;;;;;6.82;3.03;;;5.10;99.90;;;;;;5024344;28;20082;-92
2023/04/04 01:57:39;;;;;;;7.57;3.33;;;5.10;99.90;;;;;;4998198;28;20061;-93
2023/04/04 02:00:06;;;;;;;10.13;2.92;;;5.10;99.90;;;;;;4997540;28;20032;-94
2023/04/04 02:02:32;;;;;;;8.35;2.97;;;5.00;99.90;;;;;;4997007;28;20026;-93
2023/04/04 02:04:58;;;;;;;9.65;3.20;;;5.10;99.90;;;;;;4997339;28;20137;-93
2023/04/04 02:07:24;;;;;;;8.95;3.28;;;5.00;99.90;;;;;;5000094;28;20046;-96
2023/04/04 02:09:50;;;;;;;6.63;2.83;;;5.00;99.90;;;;;;4987758;28;20050;-94
2023/04/04 02:12:16;;;;;;;7.07;3.22;;;5.00;99.90;;;;;;5004489;28;20041;-94
2023/04/04 02:14:42;;;;;;;6.93;2.90;;;5.00;99.90;;;;;;5005396;28;20033;-95
2023/04/04 02:17:07;;;;;;;7.22;2.78;;;5.00;99.90;;;;;;5002243;28;20026;-94
2023/04/04 02:19:34;;;;;;;5.40;2.67;;;5.00;99.90;;;;;;4988568;28;20022;-94
2023/04/04 02:22:00;;;;;;;7.55;2.85;;;4.90;99.90;;;;;;5004280;28;20029;-94
2023/04/04 02:24:25;;;;;;;6.32;2.67;;;4.90;99.90;;;;;;4984471;28;20021;-95
2023/04/04 02:26:53;;;;;;;8.07;3.03;;;4.90;99.90;;;;;;4993195;28;20090;-93
2023/04/04 02:29:19;;;;;;;6.93;2.60;;;4.90;99.90;;;;;;5011594;28;20122;-94
2023/04/04 02:31:45;;;;;;;7.97;2.72;;;4.90;99.90;;;;;;5001485;28;20041;-96
2023/04/04 02:34:11;;;;;;;6.68;2.80;;;4.90;99.90;;;;;;5002318;28;20048;-96
2023/04/04 02:36:37;;;;;;;7.05;2.88;;;4.80;99.90;;;;;;4995393;28;20034;-94
2023/04/04 02:39:04;;;;;;;9.02;3.33;;;4.80;99.90;;;;;;4999948;28;20038;-95
2023/04/04 02:41:30;;;;;;;7.60;3.38;;;4.80;99.90;;;;;;5021249;28;20026;-96
2023/04/04 02:43:56;;;;;;;6.90;3.17;;;4.70;99.90;;;;;;5020543;28;20034;-96
2023/04/04 02:46:22;;;;;;;8.35;3.10;;;4.70;99.90;;;;;;5021821;28;20045;-96
2023/04/04 02:48:56;;;;;;;7.47;3.33;;;4.70;99.90;;;;;;5019105;28;20038;-96
2023/04/04 02:51:22;;;;;;;6.72;3.30;;;4.70;99.90;;;;;;5009314;28;20101;-96
2023/04/04 02:53:56;;;;;;;6.55;3.65;;;4.60;99.90;;;;;;5005447;28;20462;-96
2023/04/04 02:56:25;;;;;;;8.93;3.40;;;4.60;99.90;;;;;;5008261;28;20034;-96
2023/04/04 02:58:51;;;;;;;9.82;3.40;;;4.60;99.90;;;;;;5014945;28;20026;-96
2023/04/04 03:01:20;;;;;;;8.85;4.03;;;4.60;99.90;;;;;;5014407;28;20114;-96
2023/04/04 03:03:46;;;;;;;5.95;3.05;;;4.60;99.90;;;;;;5004270;28;20460;-94
2023/04/04 03:06:14;;;;;;;8.82;3.25;;;4.50;99.90;;;;;;4999294;28;20125;-94
2023/04/04 03:08:40;;;;;;;10.18;3.55;;;4.50;99.90;;;;;;4983908;28;20068;-88
2023/04/04 03:11:05;;;;;;;8.77;3.58;;;4.40;99.90;;;;;;5000546;28;20029;-89
2023/04/04 03:13:34;;;;;;;9.70;4.05;;;4.40;99.90;;;;;;5005066;28;20034;-96
2023/04/04 03:16:03;;;;;;;7.32;3.47;;;4.40;99.90;;;;;;4992915;28;20026;-96
2023/04/04 03:18:29;;;;;;;8.52;3.55;;;4.40;99.90;;;;;;5007405;28;20018;-96
2023/04/04 03:20:54;;;;;;;6.53;3.15;;;4.40;99.90;;;;;;5004861;28;20028;-96
2023/04/04 03:23:20;;;;;;;6.22;2.97;;;4.30;99.90;;;;;;4992677;28;20058;-96
2023/04/04 03:25:54;;;;;;;9.40;3.97;;;4.30;99.90;;;;;;5007402;28;20029;-96
2023/04/04 03:28:22;;;;;;;7.53;3.33;;;4.30;99.90;;;;;;5004182;28;20026;-88
2023/04/04 03:30:47;;;;;;;8.40;3.65;;;4.20;99.90;;;;;;4999273;28;20092;-89
2023/04/04 03:33:14;;;;;;;7.97;3.90;;;4.20;99.90;;;;;;4982642;28;20029;-87
2023/04/04 03:35:40;;;;;;;8.98;3.80;;;4.20;99.90;;;;;;4994980;28;20116;-87
2023/04/04 03:38:07;;;;;;;8.70;3.72;;;4.20;99.90;;;;;;5002720;28;20030;-88
2023/04/04 03:40:32;;;;;;;8.35;3.70;;;4.20;99.90;;;;;;4982481;28;20088;-88
2023/04/04 03:42:58;;;;;;;7.88;3.42;;;4.10;99.90;;;;;;4998971;28;20021;-88
2023/04/04 03:45:24;;;;;;;8.65;4.05;;;4.10;99.90;;;;;;5001922;28;20030;-89
2023/04/04 03:47:50;;;;;;;7.85;3.78;;;4.10;99.90;;;;;;5001929;28;20368;-89
2023/04/04 03:50:16;;;;;;;8.25;3.78;;;4.10;99.90;;;;;;5000868;28;20029;-88
2023/04/04 03:52:42;;;;;;;10.50;3.70;;;4.00;99.90;;;;;;4998442;28;20038;-88
2023/04/04 03:55:08;;;;;;;6.78;3.17;;;4.00;99.90;;;;;;4998558;28;20088;-88
2023/04/04 03:57:35;;;;;;;7.70;3.08;;;4.00;99.90;;;;;;4982418;28;20839;-92
2023/04/04 04:00:02;;;;;;;7.45;3.30;;;4.00;99.90;;;;;;4998811;28;20025;-92
2023/04/04 04:02:27;;;;;;;7.40;3.22;;;4.00;99.90;;;;;;4999022;28;20030;-88
2023/04/04 04:04:53;;;;;;;7.28;3.10;;;3.90;99.90;;;;;;4998112;28;20048;-89
2023/04/04 04:07:18;;;;;;;7.60;3.33;;;4.00;99.90;;;;;;4998318;28;20038;-88
2023/04/04 04:09:44;;;;;;;8.23;3.65;;;3.90;99.90;;;;;;4985235;28;20095;-88
2023/04/04 04:12:10;;;;;;;8.45;3.80;;;3.90;99.90;;;;;;4995415;28;20117;-88
2023/04/04 04:14:36;;;;;;;6.82;3.45;;;3.90;99.90;;;;;;4983390;28;20037;-88
2023/04/04 04:17:01;;;;;;;6.97;2.80;;;3.90;99.90;;;;;;4962564;28;20022;-88
2023/04/04 04:19:27;;;;;;;7.82;3.47;;;3.90;99.90;;;;;;4999226;28;20112;-89
2023/04/04 04:21:53;;;;;;;9.20;3.95;;;3.90;99.90;;;;;;4979203;28;20446;-89
2023/04/04 04:24:18;;;;;;;6.63;3.17;;;3.80;99.90;;;;;;4981575;28;20021;-89
2023/04/04 04:26:44;;;;;;;8.10;3.30;;;3.80;99.90;;;;;;5002560;28;20363;-89
2023/04/04 04:29:10;;;;;;;6.20;3.05;;;3.80;99.90;;;;;;4985287;28;20356;-89
2023/04/04 04:31:37;;;;;;;8.07;3.30;;;3.80;99.90;;;;;;5001137;28;20171;-89
2023/04/04 04:34:06;;;;;;;9.30;3.35;;;3.80;99.90;;;;;;5001270;28;20025;-88
2023/04/04 04:36:32;;;;;;;6.40;3.10;;;3.70;99.90;;;;;;5011203;28;20026;-94
2023/04/04 04:38:57;;;;;;;8.15;3.75;;;3.70;99.90;;;;;;5021908;28;20025;-96
2023/04/04 04:41:23;;;;;;;10.63;5.25;;;3.70;99.90;;;;;;5021385;28;20021;-94
2023/04/04 04:43:49;;;;;;;12.90;3.67;;;3.70;99.90;;;;;;4990046;28;20030;-89
2023/04/04 04:46:14;;;;;;;7.22;3.70;;;3.60;99.90;;;;;;5014295;28;20052;-90
2023/04/04 04:48:40;;;;;;;9.25;3.53;;;3.60;99.90;;;;;;4985669;28;20028;-87
2023/04/04 04:51:06;;;;;;;9.25;4.00;;;3.60;99.90;;;;;;4993982;28;20053;-88
2023/04/04 04:53:32;;;;;;;9.75;4.32;;;3.60;99.90;;;;;;5001592;28;20037;-93
2023/04/04 04:55:57;;;;;;;9.63;3.65;;;3.50;99.90;;;;;;5003192;28;20025;-94
2023/04/04 04:58:23;;;;;;;8.77;3.90;;;3.50;99.90;;;;;;5017690;28;20044;-92
2023/04/04 05:00:49;;;;;;;9.93;4.00;;;3.50;99.90;;;;;;4986018;28;20128;-92
2023/04/04 05:03:15;;;;;;;6.20;3.72;;;3.50;99.90;;;;;;5007597;28;20029;-94
2023/04/04 05:05:43;;;;;;;9.05;3.30;;;3.40;99.90;;;;;;5018207;28;20113;-93
2023/04/04 05:08:09;;;;;;;8.02;3.60;;;3.40;99.90;;;;;;5010998;28;20137;-94
2023/04/04 05:10:35;;;;;;;7.85;3.78;;;3.40;99.90;;;;;;5004013;28;20049;-96
2023/04/04 05:13:01;;;;;;;7.13;3.83;;;3.30;99.90;;;;;;5004442;28;20038;-96
2023/04/04 05:15:30;;;;;;;7.25;3.75;;;3.30;99.90;;;;;;5003934;28;20025;-96
2023/04/04 05:17:57;;;;;;;7.53;3.60;;;3.30;99.90;;;;;;5011831;28;20018;-96
2023/04/04 05:20:22;;;;;;;7.63;3.28;;;3.30;99.90;;;;;;5004103;28;20087;-94
2023/04/04 05:22:50;;;;;;;8.48;3.50;;;3.20;99.90;;;;;;5003379;28;20112;-94
2023/04/04 05:25:19;;;;;;;9.15;4.00;;;3.20;99.90;;;;;;4990037;28;20029;-95
2023/04/04 05:27:51;;;;;;;8.90;4.00;;;3.20;99.90;;;;;;5022394;28;20025;-96
2023/04/04 05:30:18;;;;;;;9.23;4.43;;;3.20;99.90;;;;;;5004212;28;20030;-95
2023/04/04 05:32:45;;;;;;;9.43;4.00;;;3.20;99.90;;;;;;5018804;28;20060;-95
2023/04/04 05:35:11;;;;;;;6.93;3.50;;;3.10;99.90;;;;;;5018891;28;20041;-95
2023/04/04 05:37:40;;;;;;;10.18;3.95;;;3.10;99.90;;;;;;5003170;28;20552;-96
2023/04/04 05:40:09;;;;;;;7.75;3.45;;;3.10;99.90;;;;;;5020746;28;20029;-96
2023/04/04 05:42:36;;;;;;;6.97;3.35;;;3.10;99.90;;;;;;5007486;28;20409;-93
2023/04/04 05:45:02;;;;;;;8.25;3.60;;;3.10;99.90;;;;;;4985523;28;20028;-93
2023/04/04 05:47:28;;;;;;;9.90;4.00;;;3.10;99.90;;;;;;5006578;28;20434;-93
2023/04/04 05:49:53;;;;;;;11.50;3.60;;;3.10;99.90;;;;;;5025854;28;20089;-93
2023/04/04 05:52:25;;;;;;;7.78;3.70;;;3.10;99.90;;;;;;4987331;28;20030;-92
2023/04/04 05:54:51;;;;;;;10.18;3.78;;;3.10;99.90;;;;;;4985755;28;20479;-93
2023/04/04 05:57:22;;;;;;;8.77;3.80;;;3.20;99.90;;;;;;5017277;28;20109;-94
2023/04/04 05:59:48;;;;;;;10.18;4.13;;;3.10;99.90;;;;;;5001793;28;20037;-94
2023/04/04 06:02:14;;;;;;;9.95;4.72;;;3.20;99.90;;;;;;5019208;28;20030;-95
2023/04/04 06:04:40;;;;;;;8.68;3.70;;;3.20;99.90;;;;;;5002778;28;20048;-94
2023/04/04 06:07:05;;;;;;;9.15;3.90;;;3.20;99.90;;;;;;5019568;28;20101;-94
2023/04/04 06:09:31;;;;;;;6.85;3.22;;;3.20;99.90;;;;;;5004874;28;20033;-93
2023/04/04 06:11:57;;;;;;;8.25;3.70;;;3.20;99.90;;;;;;5005548;28;20057;-93
2023/04/04 06:14:24;;;;;;;7.45;3.75;;;3.20;99.90;;;;;;4989949;28;20038;-93
2023/04/04 06:16:50;;;;;;;9.27;3.90;;;3.30;99.90;;;;;;5021498;28;20025;-89
2023/04/04 06:19:34;;;;;;;9.40;4.63;;;3.30;99.90;;;;;;5004922;28;20498;-89
2023/04/04 06:21:59;;;;;;;9.15;4.00;;;3.30;99.90;;;;;;4965505;28;20034;-88
2023/04/04 06:24:26;;;;;;;9.75;4.55;;;3.30;99.90;;;;;;4975560;28;20038;-88
2023/04/04 06:26:53;;;;;;;9.90;4.00;;;3.40;99.90;;;;;;5001290;28;20116;-88
2023/04/04 06:29:19;;;;;;;10.18;4.15;;;3.40;99.90;;;;;;4984902;28;20092;-89
2023/04/04 06:31:45;;;;;;;8.13;4.05;;;3.40;99.90;;;;;;4985023;28;20038;-89
2023/04/04 06:34:11;;;;;;;7.47;3.55;;;3.50;99.90;;;;;;5004971;28;20037;-95
2023/04/04 06:36:36;;;;;;;6.32;3.58;;;3.50;99.90;;;;;;5005724;28;20022;-88
2023/04/04 06:39:02;;;;;;;9.82;3.78;;;3.60;99.90;;;;;;5004546;28;20026;-89
2023/04/04 06:41:28;;;;;;;8.48;3.53;;;3.60;99.90;;;;;;5006607;28;20563;-89
2023/04/04 06:43:53;;;;;;;7.05;3.67;;;3.60;99.90;;;;;;5026031;28;20030;-88
2023/04/04 06:46:19;;;;;;;8.73;3.47;;;3.60;99.90;;;;;;5021677;28;20017;-94
2023/04/04 06:48:45;;;;;;;11.50;4.00;;;3.70;99.90;;;;;;5023878;28;20018;-96
2023/04/04 06:51:11;;;;;;;5.63;3.10;;;3.70;99.90;;;;;;5019993;28;20068;-96
2023/04/04 06:53:39;;;;;;;6.38;2.83;;;3.80;99.90;;;;;;5005636;28;20033;-96
2023/04/04 06:56:05;;;;;;;10.30;2.97;;;3.80;99.90;;;;;;5005666;28;20491;-96
2023/04/04 06:58:40;;;;;;;9.13;4.03;;;3.90;99.90;;;;;;5004811;28;20026;-96
2023/04/04 07:01:06;;;;;;;7.30;3.20;;;3.90;99.90;;;;;;5004156;28;20076;-96
2023/04/04 07:03:32;;;;;;;6.88;2.85;;;3.90;99.90;;;;;;5004886;28;20018;-96
2023/04/04 07:06:00;;;;;;;9.40;3.03;;;4.00;99.90;;;;;;5003552;28;20479;-96
2023/04/04 07:08:27;;;;;;;8.10;3.10;;;4.00;99.90;;;;;;5003034;28;20040;-95
2023/04/04 07:10:53;;;;;;;7.22;3.20;;;4.00;99.90;;;;;;5001896;28;20022;-96
2023/04/04 07:13:19;;;;;;;7.65;2.50;;;4.10;99.90;;;;;;5002365;28;20073;-96
2023/04/04 07:15:48;;;;;;;5.68;2.40;;;4.10;99.90;;;;;;5002960;28;20487;-95
2023/04/04 07:18:15;;;;;;;7.05;2.95;;;4.20;99.90;;;;;;5003065;28;20052;-96
2023/04/04 07:20:42;;;;;;;7.35;2.85;;;4.30;99.90;;;;;;5005285;28;20022;-96
2023/04/04 07:23:10;;;;;;;5.30;2.72;;;4.20;99.90;;;;;;5001650;28;20014;-93
2023/04/04 07:25:36;;;;;;;5.57;2.95;;;4.30;99.90;;;;;;5000719;28;20105;-93
2023/04/04 07:28:02;;;;;;;6.30;2.75;;;4.40;99.90;;;;;;5002282;28;20022;-93
2023/04/04 07:30:31;;;;;;;5.97;2.58;;;4.40;99.90;;;;;;5005722;28;20112;-91
2023/04/04 07:32:58;;;;;;;5.95;2.40;;;4.50;99.90;;;;;;4990827;28;20034;-92
2023/04/04 07:35:23;;;;;;;7.68;2.67;;;4.50;99.90;;;;;;5006831;28;20034;-92
2023/04/04 07:37:49;;;;;;;5.00;2.50;;;4.60;99.90;;;;;;5005978;28;20113;-90
2023/04/04 07:40:16;;;;;;;6.57;2.72;;;4.70;99.90;;;;;;5018104;28;20041;-96
2023/04/04 07:42:45;;;;;;;7.15;2.88;;;4.70;99.90;;;;;;5009017;28;20058;-93
2023/04/04 07:45:12;;;;;;;9.55;2.85;;;4.80;99.90;;;;;;5000177;28;20018;-92
2023/04/04 07:47:43;;;;;;;6.18;2.53;;;4.80;99.90;;;;;;4984649;28;20094;-94
2023/04/04 07:50:09;;;;;;;6.00;2.35;;;4.80;99.90;;;;;;5000123;28;20026;-92
2023/04/04 07:52:35;;;;;;;5.40;2.78;;;4.90;99.90;;;;;;4999551;28;20121;-92
2023/04/04 07:55:02;;;;;;;5.43;2.70;;;5.00;99.90;;;;;;4974914;28;20076;-91
2023/04/04 07:57:28;;;;;;;7.47;3.00;;;5.00;99.90;;;;;;4983875;28;20083;-90
2023/04/04 07:59:54;;;;;;;5.38;2.30;;;5.10;99.90;;;;;;4983605;28;20034;-91
2023/04/04 08:02:22;;;;;;;7.55;3.13;;;5.20;99.90;;;;;;4983874;28;20116;-91
2023/04/04 08:04:48;;;;;;;5.80;2.78;;;5.20;99.90;;;;;;4983330;28;20052;-91
2023/04/04 08:07:14;;;;;;;6.18;2.70;;;5.30;99.90;;;;;;4983695;28;20034;-90
2023/04/04 08:09:41;;;;;;;8.32;2.65;;;5.40;99.90;;;;;;4983337;28;20053;-90
2023/04/04 08:12:07;;;;;;;10.35;3.25;;;5.50;99.90;;;;;;4985882;28;20026;-90
2023/04/04 08:14:45;;;;;;;7.35;2.55;;;5.50;99.90;;;;;;5002983;28;20033;-90
2023/04/04 08:17:11;;;;;;;6.00;2.50;;;5.60;99.90;;;;;;5002356;28;20042;-91
2023/04/04 08:19:37;;;;;;;7.20;2.42;;;5.70;99.90;;;;;;5001651;28;20045;-89
2023/04/04 08:22:03;;;;;;;6.05;2.70;;;5.80;99.90;;;;;;5015852;28;20041;-90
2023/04/04 08:24:28;;;;;;;5.38;2.28;;;5.90;99.90;;;;;;4989667;28;20060;-96
2023/04/04 08:26:54;;;;;;;6.45;2.25;;;6.00;99.90;;;;;;4985084;28;20030;-95
2023/04/04 08:29:20;;;;;;;4.90;1.88;;;6.00;99.90;;;;;;4992913;28;20116;-96
2023/04/04 08:31:46;;;;;;;6.10;2.42;;;6.20;99.90;;;;;;5002627;28;20032;-91
2023/04/04 08:34:12;;;;;;;6.75;2.80;;;6.20;99.90;;;;;;5018844;28;20014;-91
2023/04/04 08:36:40;;;;;;;7.53;2.63;;;6.30;99.90;;;;;;5002414;28;20045;-91
2023/04/04 08:39:06;;;;;;;6.55;2.65;;;6.50;99.90;;;;;;4998328;28;20455;-96
2023/04/04 08:41:34;;;;;;;5.85;2.58;;;6.60;99.90;;;;;;5017139;28;20016;-96
2023/04/04 08:46:44;;;;;;;5.45;2.63;;;6.80;99.90;;;;;;5353820;22;20060;-89
2023/04/04 08:49:13;;;;;;;7.00;2.78;;;6.90;99.90;;;;;;4995906;28;20060;-90
2023/04/04 08:51:40;;;;;;;7.00;2.25;;;6.90;99.90;;;;;;4979815;28;20023;-90
2023/04/04 08:54:07;;;;;;;9.15;3.55;;;7.00;99.90;;;;;;4979383;28;20476;-90
2023/04/04 08:56:34;;;;;;;4.95;2.38;;;7.10;99.90;;;;;;4978875;28;20030;-90
2023/04/04 08:59:26;;;;;;;7.72;2.67;;;7.20;99.90;;;;;;4981135;28;20041;-86
2023/04/04 09:02:08;;;;;;;7.07;2.88;;;7.30;99.90;;;;;;4993656;28;20026;-95
2023/04/04 09:04:38;;;;;;;5.95;2.47;;;7.40;99.90;;;;;;5000614;28;20030;-95
2023/04/04 09:07:05;;;;;;;8.50;2.60;;;7.50;99.90;;;;;;4990467;28;20033;-96
2023/04/04 09:09:32;;;;;;;6.47;2.63;;;7.60;99.60;;;;;;4999125;28;20126;-95
2023/04/04 09:12:02;;;;;;;9.50;2.40;;;7.60;99.00;;;;;;5002228;28;20047;-95
2023/04/04 09:14:36;;;;;;;4.32;2.30;;;7.70;99.10;;;;;;5002246;28;20078;-94
2023/04/04 09:17:02;;;;;;;5.80;2.30;;;7.80;99.00;;;;;;4998222;28;20030;-95
2023/04/04 09:19:46;;;;;;;4.40;2.05;;;7.90;98.70;;;;;;4989117;28;20050;-91
2023/04/04 09:22:16;;;;;;;5.88;2.40;;;8.00;98.50;;;;;;4966152;28;20033;-92
2023/04/04 09:24:42;;;;;;;9.25;2.65;;;8.00;97.20;;;;;;4986583;28;20002;-90
2023/04/04 09:27:10;;;;;;;3.47;2.13;;;8.10;97.40;;;;;;5000838;28;20026;-91
2023/04/04 09:29:40;;;;;;;3.78;1.95;;;8.20;97.60;;;;;;4984774;28;20082;-89
2023/04/04 09:32:13;;;;;;;5.32;1.77;;;8.30;96.90;;;;;;4997522;28;20023;-89
2023/04/04 09:34:39;;;;;;;3.10;1.48;;;8.40;95.50;;;;;;4994203;28;20049;-92
2023/04/04 09:37:05;;;;;;;5.80;1.70;;;8.40;95.20;;;;;;4989352;28;20027;-96
2023/04/04 09:39:39;;;;;;;5.63;1.73;;;8.50;94.90;;;;;;4991410;28;20038;-94
2023/04/04 09:42:06;;;;;;;4.63;1.83;;;8.70;94.60;;;;;;4991932;28;20494;-92
2023/04/04 09:44:35;;;;;;;3.60;1.80;;;8.80;94.20;;;;;;4984117;28;20025;-91
2023/04/04 09:47:37;;;;;;;6.82;2.28;;;8.80;94.30;;;;;;4987419;28;20048;-96
2023/04/04 09:50:04;;;;;;;6.68;2.50;;;8.90;93.30;;;;;;4990917;28;20038;-95
2023/04/04 09:52:34;;;;;;;4.43;2.00;;;9.00;92.60;;;;;;4991041;28;20463;-90
2023/04/04 09:55:02;;;;;;;8.60;2.90;;;9.10;92.40;;;;;;4967225;28;20035;-89
2023/04/04 09:57:32;;;;;;;6.00;2.60;;;9.20;91.40;;;;;;4988751;28;20045;-96
2023/04/04 10:00:03;;;;;;;4.25;1.98;;;9.20;88.20;;;;;;5001996;28;20492;-95
2023/04/04 10:02:30;;;;;;;5.72;2.10;;;9.30;89.70;;;;;;4983895;28;20030;-95
2023/04/04 10:04:56;;;;;;;5.50;1.92;;;9.30;87.90;;;;;;4983810;28;20113;-95
2023/04/04 10:07:28;;;;;;;4.35;1.90;;;9.40;88.50;;;;;;4983881;28;20105;-94
2023/04/04 10:09:54;;;;;;;4.38;1.95;;;9.50;88.60;;;;;;4984080;28;20478;-91
2023/04/04 10:12:26;;;;;;;9.38;2.75;;;9.60;87.30;;;;;;4997314;28;20018;-90
2023/04/04 10:14:56;;;;;;;5.50;2.50;;;9.60;87.00;;;;;;5005247;28;20023;-90
2023/04/04 10:17:24;;;;;;;7.68;2.38;;;9.80;85.60;;;;;;5005609;28;20006;-91
2023/04/04 10:19:52;;;;;;;6.93;2.25;;;9.80;85.00;;;;;;5005213;28;20022;-93
2023/04/04 10:22:19;;;;;;;5.65;2.42;;;9.90;84.80;;;;;;5002663;28;20062;-91
2023/04/04 10:24:46;;;;;;;3.95;2.10;;;10.00;84.30;;;;;;5003719;28;20034;-91
2023/04/04 10:27:15;;;;;;;5.30;2.45;;;10.10;84.10;;;;;;4986254;28;20030;-94
2023/04/04 10:29:40;;;;;;;7.20;2.63;;;10.10;83.60;;;;;;4982349;28;20050;-94
2023/04/04 10:32:11;;;;;;;6.20;2.50;;;10.20;83.80;;;;;;4982448;28;20088;-92
2023/04/04 10:34:48;;;;;;;4.18;2.40;;;10.20;83.60;;;;;;4982762;28;20534;-93
2023/04/04 10:37:28;;;;;;;9.35;2.70;;;10.30;83.60;;;;;;4983711;28;20547;-93
2023/04/04 10:40:14;;;;;;;5.40;2.40;;;10.40;82.60;;;;;;4983482;28;20400;-93
2023/04/04 10:43:05;;;;;;;6.35;2.50;;;10.50;81.20;;;;;;4984110;28;20089;-93
2023/04/04 10:45:32;;;;;;;9.32;3.00;;;10.60;79.60;;;;;;4986635;28;20022;-94
2023/04/04 10:47:58;;;;;;;6.65;3.33;;;10.70;80.90;;;;;;4982308;28;20026;-93
2023/04/04 10:50:25;;;;;;;6.22;2.47;;;10.70;80.10;;;;;;4982273;28;20061;-94
2023/04/04 10:52:52;;;;;;;4.70;2.35;;;10.80;79.80;;;;;;4968576;28;20125;-94
2023/04/04 10:55:21;;;;;;;4.93;2.33;;;10.80;79.20;;;;;;4966048;28;20026;-93
2023/04/04 10:57:54;;;;;;;6.90;2.50;;;10.90;78.90;;;;;;4982631;28;20054;-94
2023/04/04 11:00:23;;;;;;;5.93;2.65;;;11.00;77.40;;;;;;4985347;28;20027;-95
2023/04/04 11:03:07;;;;;;;6.55;2.50;;;11.00;77.10;;;;;;4966732;28;20025;-95
2023/04/04 11:05:50;;;;;;;7.18;2.45;;;11.10;77.00;;;;;;4966938;28;20555;-94
2023/04/04 11:08:23;;;;;;;4.43;2.42;;;11.20;75.70;;;;;;4986627;28;20033;-93
2023/04/04 11:10:56;;;;;;;6.95;3.15;;;11.20;74.80;;;;;;4980770;28;20078;-91
2023/04/04 11:13:28;;;;;;;5.47;2.45;;;11.20;75.00;;;;;;4999591;28;20026;-90
2023/04/04 11:16:02;;;;;;;7.15;3.22;;;11.20;75.50;;;;;;5012987;28;20038;-95
2023/04/04 11:18:31;;;;;;;6.47;2.63;;;11.30;76.80;;;;;;4986496;28;20019;-94
2023/04/04 11:21:01;;;;;;;6.20;2.70;;;11.40;76.60;;;;;;4983171;28;20034;-94
2023/04/04 11:23:37;;;;;;;10.23;3.22;;;11.50;76.60;;;;;;4983986;28;20423;-94
2023/04/04 11:26:07;;;;;;;8.15;2.53;;;11.60;76.00;;;;;;5001413;28;20047;-95
2023/04/04 11:28:45;;;;;;;5.93;2.47;;;11.70;76.00;;;;;;5002046;28;20025;-94
2023/04/04 11:31:20;;;;;;;9.18;3.08;;;11.80;76.90;;;;;;4986546;28;20018;-94
2023/04/04 11:34:04;;;;;;;6.15;2.25;;;11.90;75.90;;;;;;4985790;28;20595;-90
2023/04/04 11:36:40;;;;;;;6.00;2.90;;;12.00;74.00;;;;;;4993942;28;20024;-94
2023/04/04 11:39:08;;;;;;;9.57;2.72;;;12.00;74.00;;;;;;4998325;28;20094;-93
2023/04/04 11:42:21;;;;;;;7.72;2.60;;;12.10;73.00;;;;;;4982846;28;20069;-95
2023/04/04 11:44:56;;;;;;;7.57;3.38;;;12.20;73.90;;;;;;5000031;28;20014;-95
2023/04/04 11:47:24;;;;;;;5.13;2.55;;;12.40;73.60;;;;;;5000591;28;20046;-95
2023/04/04 11:49:52;;;;;;;7.60;2.53;;;12.40;71.10;;;;;;4990307;28;20023;-94
2023/04/04 11:52:18;;;;;;;6.43;3.00;;;12.40;70.50;;;;;;4983053;28;20037;-96
2023/04/04 11:54:46;;;;;;;5.88;2.97;;;12.50;69.70;;;;;;4966741;28;20048;-93
2023/04/04 11:57:14;;;;;;;5.50;2.55;;;12.50;70.80;;;;;;4964811;28;20122;-93
2023/04/04 11:59:45;;;;;;;4.78;2.50;;;12.60;70.80;;;;;;4980944;28;20022;-93
2023/04/04 12:02:30;;;;;;;7.00;2.88;;;12.70;70.50;;;;;;4966169;28;20121;-90
2023/04/04 12:04:56;;;;;;;6.03;2.75;;;12.70;69.10;;;;;;4965094;28;20030;-90
2023/04/04 12:07:27;;;;;;;8.65;3.20;;;12.80;70.10;;;;;;4971818;28;20030;-93
2023/04/04 12:09:53;;;;;;;5.78;2.70;;;12.80;69.60;;;;;;4975327;28;20037;-93
2023/04/04 12:12:21;;;;;;;6.55;2.70;;;12.90;70.10;;;;;;4974275;28;20037;-94
2023/04/04 12:14:49;;;;;;;7.35;2.85;;;12.90;66.10;;;;;;4991748;28;20025;-92
2023/04/04 12:17:15;;;;;;;6.43;2.70;;;12.90;66.00;;;;;;5002162;28;20010;-91
2023/04/04 12:19:45;;;;;;;6.15;2.80;;;13.00;67.40;;;;;;4985602;28;20046;-89
2023/04/04 12:22:11;;;;;;;6.47;3.03;;;13.00;68.20;;;;;;4998811;28;20076;-94
2023/04/04 12:24:37;;;;;;;7.18;2.80;;;13.10;68.10;;;;;;4966714;28;20124;-93
2023/04/04 12:27:03;;;;;;;5.88;2.72;;;13.10;67.20;;;;;;4983442;28;20049;-93
2023/04/04 12:29:37;;;;;;;5.15;2.72;;;13.20;67.60;;;;;;4984710;28;20032;-95
2023/04/04 12:32:05;;;;;;;4.85;2.70;;;13.30;67.70;;;;;;5000650;28;20204;-91
2023/04/04 12:34:41;;;;;;;6.38;2.58;;;13.40;68.30;;;;;;5001610;28;20010;-91
2023/04/04 12:37:15;;;;;;;6.45;2.47;;;13.40;67.70;;;;;;4985251;28;20018;-91
2023/04/04 12:39:49;;;;;;;6.63;2.67;;;13.50;68.20;;;;;;4974127;28;20070;-90
2023/04/04 12:42:24;;;;;;;9.50;2.95;;;13.70;68.00;;;;;;4985097;28;20033;-96
2023/04/04 12:44:51;;;;;;;5.82;2.78;;;13.70;67.10;;;;;;4989401;28;20027;-94
2023/04/04 12:47:22;;;;;;;6.82;3.10;;;13.80;66.40;;;;;;4982946;28;20047;-94
2023/04/04 12:49:51;;;;;;;3.72;2.00;;;13.80;62.20;;;;;;4986012;28;20035;-93
2023/04/04 12:52:25;;;;;;;5.97;2.85;;;13.70;61.20;;;;;;4985954;28;20031;-95
2023/04/04 12:54:52;;;;;;;5.15;2.58;;;13.70;62.40;;;;;;4980554;28;20030;-90
2023/04/04 12:57:21;;;;;;;6.43;2.88;;;13.80;62.00;;;;;;4969879;28;20022;-95
2023/04/04 12:59:49;;;;;;;6.80;2.70;;;13.80;63.90;;;;;;4983884;28;20058;-93
2023/04/04 13:02:18;;;;;;;5.95;2.67;;;13.90;64.00;;;;;;4966754;28;20031;-93
2023/04/04 13:04:52;;;;;;;7.68;3.00;;;14.00;64.50;;;;;;4981558;28;20567;-94